Rixford, PA (16745)

11:27 PM EDT on May 24, 2015 (GMT -0400)
Downtown Duke Center | | Change Station
CLOSE
Current Station
Personal Weather Station
Location: Duke Center, PA
Elevation: 1604 ft
Nearby Weather Stations

Elev 1604 ft 41.95 °N, 78.48 °W | Updated 18 seconds ago

Overcast
Overcast
58.8 °F
Feels Like 58.8 °F
N
0.0
Wind Variable Wind from West
Gusts 0.0 mph

Today
High -- | Low -- °F
--% Chance of Precip.
Yesterday
High -- | Low -- °F
Precip. -- in
5:46 AM 8:35 PM
Waxing Crescent, 44% visible
Pressure 30.23 in
Visibility 10.0 miles
Clouds Mostly Cloudy 9000 ft
Overcast 11000 ft
Dew Point 50 °F
Humidity 73%
Rainfall 0.00 in
Snow Depth Not available.
UV 0 out of 12
Pollen 9.40 out of 12
Air Quality Not available.
Flu Activity Sporadic
METAR KBFD 250253Z AUTO 00000KT 10SM BKN090 OVC110 16/09 A3026 RMK AO2 SLP236 T01560094 55002

More Conditions Fewer Conditions

Pressure 30.23 in
Visibility 10.0 miles
Clouds Mostly Cloudy 9000 ft
Overcast 11000 ft
Dew Point 50 °F
Humidity 73%
Rainfall 0.00 in
Snow Depth Not available.
UV 0 out of 12
Pollen 9.40 out of 12
Air Quality Not available.
Flu Activity Sporadic
METAR KBFD 250253Z AUTO 00000KT 10SM BKN090 OVC110 16/09 A3026 RMK AO2 SLP236 T01560094 55002

More Conditions Fewer Conditions

10-Day Weather Forecast

Almanac

Astronomy

May. 24, 2015 Rise Set
Actual Time
Civil Twilight
Nautical Twilight
Astronomical Twilight
Moon
Length of Visible Light
Length of Day
Tomorrow will be .
, % of the Moon is Illuminated

Today's Extremes

State Highs State Lows

Community

WunderPhotos

Upload Photos

1,823,946 photos uploaded!

WunderBlogs® & News

Nearby

Air Quality

  Air Quality AQ Index Pollutant
Not available.

Snow Depth

Station Depth Elevation

Earthquake Activity

City Distance Mag. Time & Date
Minimum magnitude displayed is 2.5.

Coastal Water Temperatures

Place Temperature

Stations

Nearby Weather Stations

Station Location Temp. Windchill Dew Point Humidity Wind Precip. Elev Updated Type